Time;durP1;ratioP1;P1;durP2;ratioP2;P2;SDS_P1;SDS_P2;PMS_P1;PMS_P2;Temp;Humidity;BMP_temperature;BMP_pressure;BME280_temperature;BME280_humidity;BME280_pressure;Samples;Min_cycle;Max_cycle;Signal;HPM_P1;HPM_P2
2022/05/03 00:00:06;;;;;;;9.40;5.10;;;13.20;99.90;;;;;;5116266;28;20169;-66
2022/05/03 00:02:45;;;;;;;6.17;5.50;;;13.20;99.90;;;;;;5116414;28;20238;-67
2022/05/03 00:05:23;;;;;;;10.90;5.33;;;13.10;99.90;;;;;;5116134;28;20498;-66
2022/05/03 00:08:05;;;;;;;7.07;5.57;;;13.10;99.90;;;;;;5116077;28;20166;-67
2022/05/03 00:10:50;;;;;;;12.17;6.03;;;13.10;99.90;;;;;;5115915;28;20211;-65
2022/05/03 00:13:19;;;;;;;6.67;5.67;;;13.10;99.90;;;;;;5132718;27;20170;-66
2022/05/03 00:15:45;;;;;;;8.10;6.07;;;13.00;99.90;;;;;;5118177;28;20169;-67
2022/05/03 00:18:11;;;;;;;6.97;5.63;;;12.90;99.90;;;;;;5120508;28;20158;-65
2022/05/03 00:20:38;;;;;;;8.30;6.40;;;12.70;99.90;;;;;;5122900;28;20164;-66
2022/05/03 00:23:04;;;;;;;7.37;5.77;;;12.60;99.90;;;;;;5123338;28;20202;-66
2022/05/03 00:25:30;;;;;;;8.90;6.13;;;12.60;99.90;;;;;;5123146;28;20165;-65
2022/05/03 00:27:56;;;;;;;10.80;5.90;;;12.50;99.90;;;;;;5117015;28;20158;-66
2022/05/03 00:30:22;;;;;;;8.77;6.07;;;12.60;99.90;;;;;;5115836;28;20165;-69
2022/05/03 00:32:47;;;;;;;9.90;6.17;;;12.50;99.90;;;;;;5116825;28;20165;-67
2022/05/03 00:35:13;;;;;;;9.03;6.13;;;12.50;99.90;;;;;;5104201;28;20241;-70
2022/05/03 00:37:39;;;;;;;8.53;5.97;;;12.40;99.90;;;;;;5137006;28;20225;-69
2022/05/03 00:40:05;;;;;;;7.23;5.63;;;12.20;99.90;;;;;;5122460;28;20527;-66
2022/05/03 00:42:46;;;;;;;8.33;5.70;;;12.30;99.90;;;;;;5097135;28;20240;-66
2022/05/03 00:45:18;;;;;;;10.10;6.30;;;12.30;99.90;;;;;;5115410;28;20170;-67
2022/05/03 00:47:58;;;;;;;9.80;6.23;;;12.20;99.90;;;;;;5114724;28;20162;-67
2022/05/03 00:50:32;;;;;;;6.73;5.47;;;12.10;99.90;;;;;;5115410;28;20245;-65
2022/05/03 00:53:01;;;;;;;9.53;5.57;;;12.10;99.90;;;;;;5115381;28;20501;-68
2022/05/03 00:55:56;;;;;;;8.70;5.80;;;12.10;99.90;;;;;;5115635;28;20235;-66
2022/05/03 00:58:39;;;;;;;8.27;5.07;;;12.10;99.90;;;;;;5116027;28;20196;-68
2022/05/03 01:01:27;;;;;;;9.27;5.43;;;12.10;99.90;;;;;;5113447;28;20206;-65
2022/05/03 01:03:53;;;;;;;7.33;5.27;;;12.10;99.90;;;;;;5114728;28;20213;-67
2022/05/03 01:06:54;;;;;;;6.63;5.53;;;12.10;99.90;;;;;;5121353;28;20259;-67
2022/05/03 01:09:27;;;;;;;6.30;5.20;;;12.00;99.90;;;;;;5115428;28;20610;-65
2022/05/03 01:12:05;;;;;;;7.13;5.20;;;11.80;99.90;;;;;;5122057;28;20162;-66
2022/05/03 01:14:42;;;;;;;8.00;5.30;;;11.70;99.90;;;;;;5118315;28;20158;-66
2022/05/03 01:17:14;;;;;;;7.40;5.97;;;11.80;99.90;;;;;;5116790;28;20249;-66
2022/05/03 01:20:08;;;;;;;7.13;5.80;;;11.70;99.90;;;;;;5114939;28;20169;-66
2022/05/03 01:23:22;;;;;;;7.53;5.57;;;11.60;99.90;;;;;;5114564;28;20653;-65
2022/05/03 01:26:15;;;;;;;8.20;6.07;;;11.60;99.90;;;;;;5114831;28;20164;-65
2022/05/03 01:29:13;;;;;;;7.43;5.57;;;11.60;99.90;;;;;;5114101;28;20162;-66
2022/05/03 01:31:39;;;;;;;8.07;6.00;;;11.50;99.90;;;;;;5114886;28;20158;-65
2022/05/03 01:34:06;;;;;;;7.33;5.60;;;11.20;99.90;;;;;;5114413;28;20162;-65
2022/05/03 01:36:59;;;;;;;9.60;6.00;;;11.20;99.90;;;;;;5115629;28;20162;-65
2022/05/03 01:39:28;;;;;;;7.27;5.53;;;11.30;99.90;;;;;;5097938;28;20177;-66
2022/05/03 01:42:21;;;;;;;6.93;6.00;;;11.20;99.90;;;;;;5115336;28;20198;-66
2022/05/03 01:45:10;;;;;;;10.67;5.80;;;11.30;99.90;;;;;;5114849;28;20173;-66
2022/05/03 01:47:56;;;;;;;6.97;5.80;;;11.40;99.90;;;;;;5114373;28;20162;-65
2022/05/03 01:50:33;;;;;;;8.73;5.63;;;11.30;99.90;;;;;;5114608;28;20487;-68
2022/05/03 01:53:27;;;;;;;11.43;5.60;;;11.20;99.90;;;;;;5114709;28;20162;-65
2022/05/03 01:56:25;;;;;;;7.27;5.70;;;11.30;99.90;;;;;;5116782;28;20186;-64
2022/05/03 01:59:10;;;;;;;6.20;5.57;;;11.10;99.90;;;;;;5105452;28;20182;-66
2022/05/03 02:01:50;;;;;;;7.77;5.07;;;11.00;99.90;;;;;;5120510;28;20212;-65
2022/05/03 02:04:25;;;;;;;8.67;5.67;;;11.00;99.90;;;;;;5116462;28;20602;-66
2022/05/03 02:07:12;;;;;;;8.17;6.07;;;11.10;99.90;;;;;;5115302;28;20515;-67
2022/05/03 02:09:50;;;;;;;8.93;5.60;;;11.10;99.90;;;;;;5114209;28;20192;-65
2022/05/03 02:12:18;;;;;;;7.67;5.37;;;11.20;99.90;;;;;;5113851;28;20257;-67
2022/05/03 02:14:55;;;;;;;7.57;5.73;;;11.00;99.90;;;;;;5114243;28;20209;-65
2022/05/03 02:17:30;;;;;;;9.67;6.30;;;10.90;99.90;;;;;;5114176;28;20258;-67
2022/05/03 02:20:29;;;;;;;7.83;6.23;;;10.80;99.90;;;;;;5113948;28;20157;-66
2022/05/03 02:23:15;;;;;;;7.37;5.63;;;10.80;99.90;;;;;;5114079;28;20625;-66
2022/05/03 02:25:46;;;;;;;8.47;6.07;;;10.80;99.90;;;;;;5095618;28;20678;-66
2022/05/03 02:28:33;;;;;;;8.27;5.30;;;10.90;99.90;;;;;;5114795;28;20602;-68
2022/05/03 02:31:02;;;;;;;9.03;6.03;;;10.90;99.90;;;;;;5114477;28;20511;-67
2022/05/03 02:33:46;;;;;;;6.53;5.60;;;10.90;99.90;;;;;;5114620;28;20166;-65
2022/05/03 02:36:17;;;;;;;8.00;6.10;;;10.90;99.90;;;;;;5113518;28;20183;-66
2022/05/03 02:39:04;;;;;;;7.33;5.80;;;10.80;99.90;;;;;;5095711;28;20173;-67
2022/05/03 02:41:38;;;;;;;8.67;6.33;;;10.80;99.90;;;;;;5113850;28;20187;-65
2022/05/03 02:44:03;;;;;;;7.43;6.00;;;10.70;99.90;;;;;;5096163;28;20182;-65
2022/05/03 02:46:48;;;;;;;7.33;6.13;;;10.70;99.90;;;;;;5095827;28;20179;-65
2022/05/03 02:49:45;;;;;;;8.37;6.20;;;10.60;99.90;;;;;;5113963;28;20159;-66
2022/05/03 02:52:46;;;;;;;9.37;5.80;;;10.50;99.90;;;;;;5113571;28;20221;-65
2022/05/03 02:55:29;;;;;;;14.73;5.80;;;10.60;99.90;;;;;;5130888;28;20620;-69
2022/05/03 02:58:05;;;;;;;9.23;5.57;;;10.60;99.90;;;;;;5113918;28;20237;-67
2022/05/03 03:03:44;;;;;;;10.13;6.27;;;10.50;99.90;;;;;;5113599;28;20327;-65
2022/05/03 03:06:20;;;;;;;14.27;6.57;;;10.50;99.90;;;;;;5114260;28;20158;-64
2022/05/03 03:08:48;;;;;;;8.17;5.90;;;10.50;99.90;;;;;;5114211;28;20189;-65
2022/05/03 03:11:46;;;;;;;8.93;6.17;;;10.40;99.90;;;;;;5117344;28;20669;-67
2022/05/03 03:14:32;;;;;;;7.83;5.70;;;10.40;99.90;;;;;;5045554;28;20228;-66
2022/05/03 03:17:09;;;;;;;8.17;5.57;;;10.50;99.90;;;;;;5099464;28;20170;-66
2022/05/03 03:19:40;;;;;;;10.40;6.67;;;10.40;99.90;;;;;;5117742;28;20551;-66
2022/05/03 03:22:13;;;;;;;7.80;5.83;;;10.50;99.90;;;;;;5117490;28;20189;-68
2022/05/03 03:24:40;;;;;;;9.87;6.40;;;10.30;99.90;;;;;;5133579;27;20182;-66
2022/05/03 03:27:08;;;;;;;9.00;6.60;;;10.20;99.90;;;;;;5118509;28;20162;-68
2022/05/03 03:29:36;;;;;;;9.63;6.63;;;10.40;99.90;;;;;;5124582;28;20163;-65
2022/05/03 03:32:05;;;;;;;8.43;5.87;;;10.30;99.90;;;;;;5137106;28;20170;-65
2022/05/03 03:34:32;;;;;;;7.90;5.90;;;10.30;99.90;;;;;;5119293;28;20174;-66
2022/05/03 03:37:02;;;;;;;8.13;6.00;;;10.20;99.90;;;;;;5098574;28;20206;-66
2022/05/03 03:39:32;;;;;;;9.27;5.97;;;10.20;99.90;;;;;;5116647;28;20292;-65
2022/05/03 03:42:07;;;;;;;8.80;5.97;;;10.20;99.90;;;;;;5116558;28;20194;-65
2022/05/03 03:44:34;;;;;;;10.07;6.67;;;10.10;99.90;;;;;;5117148;28;20181;-65
2022/05/03 03:47:01;;;;;;;8.63;6.10;;;10.00;99.90;;;;;;5120300;28;20177;-65
2022/05/03 03:49:29;;;;;;;11.13;5.30;;;9.90;99.90;;;;;;5120999;28;20166;-65
2022/05/03 03:51:56;;;;;;;8.97;6.60;;;10.00;99.90;;;;;;5124223;28;20227;-65
2022/05/03 03:54:23;;;;;;;8.53;6.53;;;9.90;99.90;;;;;;5121583;28;20196;-66
2022/05/03 03:56:50;;;;;;;11.47;6.97;;;9.80;99.90;;;;;;5119610;28;20159;-64
2022/05/03 03:59:17;;;;;;;8.27;6.20;;;9.80;99.90;;;;;;5117892;28;20164;-65
2022/05/03 04:01:43;;;;;;;10.63;7.40;;;9.90;99.90;;;;;;5117069;28;20202;-66
2022/05/03 04:04:11;;;;;;;9.53;7.33;;;9.90;99.90;;;;;;5117488;28;20476;-65
2022/05/03 04:06:37;;;;;;;11.27;6.77;;;9.80;99.90;;;;;;5120258;28;20154;-66
2022/05/03 04:09:03;;;;;;;9.17;7.27;;;9.80;99.90;;;;;;5127300;28;20510;-65
2022/05/03 04:11:40;;;;;;;9.87;6.60;;;9.90;99.90;;;;;;5126730;28;20159;-65
2022/05/03 04:14:07;;;;;;;8.90;6.07;;;10.00;99.90;;;;;;5126218;28;20260;-67
2022/05/03 04:16:32;;;;;;;10.17;6.47;;;10.00;99.90;;;;;;5143738;27;20177;-65
2022/05/03 04:18:58;;;;;;;10.47;6.50;;;10.00;99.90;;;;;;5143764;27;20162;-65
2022/05/03 04:21:23;;;;;;;13.73;6.80;;;10.00;99.90;;;;;;5142746;27;20610;-65
2022/05/03 04:23:49;;;;;;;8.77;6.87;;;10.10;99.90;;;;;;5144724;27;20165;-65
2022/05/03 04:26:14;;;;;;;9.37;6.90;;;10.10;99.90;;;;;;5143087;27;20175;-65
2022/05/03 04:28:41;;;;;;;15.47;6.93;;;10.10;99.90;;;;;;5144190;27;20180;-65
2022/05/03 04:31:07;;;;;;;9.20;6.03;;;10.20;99.90;;;;;;5140368;27;20166;-65
2022/05/03 04:33:33;;;;;;;7.83;6.50;;;10.20;99.90;;;;;;5122523;27;20207;-65
2022/05/03 04:35:59;;;;;;;10.20;7.37;;;10.20;99.90;;;;;;5140681;27;20556;-65
2022/05/03 04:38:25;;;;;;;14.17;8.67;;;10.20;99.90;;;;;;5140641;27;20193;-65
2022/05/03 04:40:58;;;;;;;10.27;7.40;;;10.20;99.90;;;;;;5136851;27;20158;-66
2022/05/03 04:43:23;;;;;;;8.93;7.20;;;10.30;99.90;;;;;;5137802;27;20659;-65
2022/05/03 04:45:49;;;;;;;9.67;7.33;;;10.30;99.90;;;;;;5137884;27;20157;-64
2022/05/03 04:48:14;;;;;;;10.57;7.77;;;10.40;99.90;;;;;;5136638;27;20165;-67
2022/05/03 04:50:41;;;;;;;12.83;6.93;;;10.40;99.90;;;;;;5136188;27;20173;-65
2022/05/03 04:53:06;;;;;;;12.63;7.53;;;10.50;99.90;;;;;;5136280;27;20153;-66
2022/05/03 04:55:32;;;;;;;10.23;7.07;;;10.70;99.90;;;;;;5152001;27;20650;-65
2022/05/03 04:57:58;;;;;;;9.67;7.30;;;10.70;99.90;;;;;;5136085;27;20615;-66
2022/05/03 05:00:23;;;;;;;10.53;7.03;;;10.60;99.90;;;;;;5135185;27;20157;-66
2022/05/03 05:02:49;;;;;;;11.87;7.70;;;10.80;99.90;;;;;;5135327;27;20233;-66
2022/05/03 05:05:15;;;;;;;10.10;7.90;;;10.80;99.90;;;;;;5135684;27;20659;-67
2022/05/03 05:07:40;;;;;;;11.37;8.10;;;11.00;99.90;;;;;;5152317;27;20216;-65
2022/05/03 05:10:26;;;;;;;10.57;7.13;;;10.90;99.90;;;;;;5136990;27;20169;-67
2022/05/03 05:12:53;;;;;;;9.47;7.20;;;11.00;99.90;;;;;;5135959;27;20169;-65
2022/05/03 05:15:19;;;;;;;12.63;7.27;;;11.10;99.90;;;;;;5136908;27;20158;-65
2022/05/03 05:17:44;;;;;;;10.33;7.50;;;11.00;99.90;;;;;;5141290;27;20475;-65
2022/05/03 05:20:10;;;;;;;9.63;7.97;;;11.10;99.90;;;;;;5154697;27;20169;-65
2022/05/03 05:22:36;;;;;;;16.90;7.37;;;11.20;99.90;;;;;;5135151;27;20186;-66
2022/05/03 05:25:02;;;;;;;12.37;8.10;;;11.20;99.90;;;;;;5135196;27;20156;-65
2022/05/03 05:27:27;;;;;;;17.00;7.30;;;11.20;99.90;;;;;;5135486;27;20197;-67
2022/05/03 05:29:53;;;;;;;11.83;8.20;;;11.20;99.90;;;;;;5135182;27;20162;-66
2022/05/03 05:32:19;;;;;;;15.13;7.33;;;11.40;99.90;;;;;;5135207;27;20507;-66
2022/05/03 05:34:44;;;;;;;12.03;7.53;;;11.50;99.90;;;;;;5134974;27;20177;-68
2022/05/03 05:37:10;;;;;;;11.27;7.60;;;11.60;99.90;;;;;;5134610;27;20161;-66
2022/05/03 05:39:35;;;;;;;13.63;8.20;;;11.60;99.90;;;;;;5117262;27;20174;-68
2022/05/03 05:42:01;;;;;;;8.93;7.20;;;11.70;99.90;;;;;;5134943;27;20189;-65
2022/05/03 05:44:28;;;;;;;11.53;8.67;;;11.70;99.90;;;;;;5135190;27;20172;-67
2022/05/03 05:46:54;;;;;;;10.07;7.40;;;11.80;99.90;;;;;;5134888;27;20154;-66
2022/05/03 05:49:20;;;;;;;16.97;7.70;;;12.00;99.90;;;;;;5135174;27;20165;-65
2022/05/03 05:51:45;;;;;;;11.23;7.50;;;11.90;99.90;;;;;;5134952;27;20168;-66
2022/05/03 05:54:12;;;;;;;9.40;7.47;;;11.90;99.90;;;;;;5134891;27;20158;-65
2022/05/03 05:56:40;;;;;;;15.57;8.83;;;12.00;99.90;;;;;;5116998;28;20268;-66
2022/05/03 05:59:05;;;;;;;11.63;8.13;;;12.20;99.90;;;;;;5135195;27;20157;-67
2022/05/03 06:01:41;;;;;;;10.73;8.00;;;12.20;99.90;;;;;;5134317;27;20254;-67
2022/05/03 06:04:07;;;;;;;12.77;8.53;;;12.30;99.90;;;;;;5135119;27;20166;-67
2022/05/03 06:06:35;;;;;;;11.57;8.23;;;12.30;99.90;;;;;;5134716;28;20241;-66
2022/05/03 06:09:02;;;;;;;11.27;8.67;;;12.40;99.90;;;;;;5135306;28;20555;-66
2022/05/03 06:11:29;;;;;;;10.83;8.43;;;12.50;99.90;;;;;;5135387;28;20174;-68
2022/05/03 06:13:54;;;;;;;14.23;8.47;;;12.60;99.90;;;;;;5135647;28;20166;-65
2022/05/03 06:16:20;;;;;;;15.70;8.73;;;12.60;99.90;;;;;;5117399;28;20196;-66
2022/05/03 06:18:46;;;;;;;11.93;8.53;;;12.70;99.90;;;;;;5136315;28;20270;-67
2022/05/03 06:21:12;;;;;;;10.00;8.33;;;12.90;99.90;;;;;;5135250;28;20154;-68
2022/05/03 06:23:38;;;;;;;12.17;8.70;;;12.90;99.90;;;;;;5134823;28;20579;-66
2022/05/03 06:26:07;;;;;;;9.57;8.33;;;12.90;99.90;;;;;;5135349;28;20240;-66
2022/05/03 06:28:33;;;;;;;13.60;8.17;;;12.90;99.90;;;;;;5144123;28;20153;-66
2022/05/03 06:30:59;;;;;;;11.77;8.73;;;13.10;99.90;;;;;;5127417;28;20184;-65
2022/05/03 06:33:24;;;;;;;12.73;8.93;;;13.30;99.90;;;;;;5135496;28;20217;-65
2022/05/03 06:35:50;;;;;;;13.37;8.70;;;13.40;99.90;;;;;;5136627;28;20154;-67
2022/05/03 06:38:16;;;;;;;11.90;8.90;;;13.40;99.90;;;;;;5135172;28;20164;-65
2022/05/03 06:40:41;;;;;;;12.20;8.23;;;13.40;99.90;;;;;;5135201;28;20166;-66
2022/05/03 06:43:08;;;;;;;11.30;8.60;;;13.50;99.90;;;;;;5139327;27;20193;-71
2022/05/03 06:45:34;;;;;;;10.00;7.70;;;13.60;99.90;;;;;;5118570;27;20254;-67
2022/05/03 06:48:02;;;;;;;15.50;7.93;;;13.80;99.90;;;;;;5119961;27;20174;-65
2022/05/03 06:50:31;;;;;;;14.37;8.77;;;14.00;99.90;;;;;;5137960;27;20165;-65
2022/05/03 06:52:57;;;;;;;11.53;7.90;;;14.00;99.90;;;;;;5138029;27;20162;-66
2022/05/03 06:55:23;;;;;;;12.37;8.67;;;14.10;99.90;;;;;;5138939;27;20177;-68
2022/05/03 06:57:49;;;;;;;12.07;7.97;;;14.10;99.90;;;;;;5138174;27;20153;-65
2022/05/03 07:00:15;;;;;;;11.77;8.87;;;14.30;99.90;;;;;;5119765;27;20230;-65
2022/05/03 07:02:44;;;;;;;14.87;8.53;;;14.50;99.90;;;;;;5137732;27;20316;-66
2022/05/03 07:05:10;;;;;;;11.90;7.93;;;14.70;99.90;;;;;;5119941;27;20173;-67
2022/05/03 07:07:36;;;;;;;11.03;7.60;;;15.00;99.90;;;;;;5138040;27;20165;-65
2022/05/03 07:10:03;;;;;;;12.13;8.60;;;15.20;99.90;;;;;;5137833;27;20165;-66
2022/05/03 07:12:29;;;;;;;11.77;8.07;;;15.30;99.90;;;;;;5154103;27;20173;-66
2022/05/03 07:15:04;;;;;;;9.40;7.13;;;15.40;99.90;;;;;;5137491;27;20286;-66
2022/05/03 07:22:58;;;;;;;11.10;7.20;;;15.40;99.90;;;;;;5137637;27;20253;-65
2022/05/03 07:25:24;;;;;;;9.73;7.37;;;15.40;99.90;;;;;;5137230;27;20165;-65
2022/05/03 07:27:51;;;;;;;13.60;7.43;;;15.60;99.90;;;;;;5137030;27;20657;-67
2022/05/03 07:30:17;;;;;;;9.03;7.03;;;15.70;99.90;;;;;;5138249;27;20314;-66
2022/05/03 07:32:43;;;;;;;15.63;8.13;;;15.80;99.90;;;;;;5137405;27;20165;-66
2022/05/03 07:35:10;;;;;;;10.67;7.43;;;15.80;99.90;;;;;;5137470;27;20161;-66
2022/05/03 07:37:37;;;;;;;9.93;7.00;;;16.00;99.90;;;;;;5136992;27;20543;-68
2022/05/03 07:40:07;;;;;;;8.73;6.87;;;16.30;99.90;;;;;;5119342;27;20540;-66
2022/05/03 07:42:33;;;;;;;9.27;6.83;;;16.40;99.90;;;;;;5137447;27;20221;-65
2022/05/03 07:44:59;;;;;;;9.93;7.40;;;16.30;99.90;;;;;;5136981;27;20173;-67
2022/05/03 07:47:25;;;;;;;8.70;6.73;;;16.50;99.90;;;;;;5136661;27;20180;-66
2022/05/03 07:49:51;;;;;;;7.80;5.17;;;16.90;99.90;;;;;;5137425;27;20169;-65
2022/05/03 07:52:17;;;;;;;7.50;4.82;;;17.00;98.40;;;;;;5136762;27;20222;-65
2022/05/03 07:54:44;;;;;;;7.13;5.30;;;17.10;98.00;;;;;;5136654;27;20157;-68
2022/05/03 07:57:12;;;;;;;8.00;5.30;;;17.20;97.10;;;;;;5136900;27;20162;-65
2022/05/03 07:59:38;;;;;;;13.00;5.45;;;17.50;96.80;;;;;;5136925;27;20150;-66
2022/05/03 08:02:04;;;;;;;6.97;5.18;;;17.70;95.70;;;;;;5136781;27;20233;-67
2022/05/03 08:04:29;;;;;;;7.15;5.15;;;17.60;95.20;;;;;;5140276;27;20158;-67
2022/05/03 08:06:55;;;;;;;5.93;5.07;;;17.60;95.10;;;;;;5142995;27;20169;-67
2022/05/03 08:09:21;;;;;;;6.43;5.20;;;17.60;94.20;;;;;;5141770;27;20249;-65
2022/05/03 08:11:46;;;;;;;14.27;5.68;;;17.50;94.10;;;;;;5142467;27;20170;-65
2022/05/03 08:14:12;;;;;;;7.47;5.43;;;17.70;93.50;;;;;;5141988;27;20487;-65
2022/05/03 08:16:38;;;;;;;8.60;5.65;;;18.00;94.00;;;;;;5153616;27;20173;-65
2022/05/03 08:19:04;;;;;;;11.05;5.60;;;18.30;92.60;;;;;;5136957;27;20161;-66
2022/05/03 08:21:32;;;;;;;9.43;5.05;;;18.30;92.70;;;;;;5136362;27;20172;-66
2022/05/03 08:23:59;;;;;;;10.02;6.30;;;18.50;91.60;;;;;;5118348;27;20184;-67
2022/05/03 08:26:25;;;;;;;10.27;5.40;;;18.60;91.40;;;;;;5136253;27;20323;-67
2022/05/03 08:28:50;;;;;;;11.70;5.35;;;18.50;91.20;;;;;;5136606;27;20183;-66
2022/05/03 08:31:16;;;;;;;6.70;4.97;;;18.80;91.30;;;;;;5135986;27;20521;-67
2022/05/03 08:33:43;;;;;;;7.43;4.72;;;18.90;90.30;;;;;;5136151;27;20240;-68
2022/05/03 08:36:09;;;;;;;8.65;5.75;;;18.90;90.90;;;;;;5135858;27;20495;-66
2022/05/03 08:44:03;;;;;;;6.47;5.03;;;18.90;89.50;;;;;;5135905;27;20198;-67
2022/05/03 08:46:31;;;;;;;7.65;5.00;;;18.90;88.10;;;;;;5135680;27;20161;-67
2022/05/03 08:49:01;;;;;;;7.88;4.22;;;19.00;86.30;;;;;;5136926;27;20201;-68
2022/05/03 08:51:29;;;;;;;8.00;4.13;;;18.90;85.30;;;;;;5137728;27;20196;-67
2022/05/03 08:53:56;;;;;;;5.40;4.45;;;18.80;84.80;;;;;;5141435;27;20169;-66
2022/05/03 08:56:22;;;;;;;5.45;4.53;;;18.70;85.70;;;;;;5141104;27;20250;-67
2022/05/03 08:58:48;;;;;;;5.57;4.18;;;18.80;87.20;;;;;;5140592;27;20221;-66
2022/05/03 09:01:14;;;;;;;6.63;4.22;;;18.80;86.10;;;;;;5124064;27;20177;-66
2022/05/03 09:03:40;;;;;;;6.32;5.07;;;19.20;85.40;;;;;;5144490;27;20221;-67
2022/05/03 09:06:07;;;;;;;9.23;5.18;;;19.50;85.50;;;;;;5141639;27;20164;-66
2022/05/03 09:08:34;;;;;;;6.88;4.68;;;19.50;85.80;;;;;;5140286;27;20162;-66
2022/05/03 09:11:11;;;;;;;8.60;4.80;;;19.50;85.20;;;;;;5138868;27;20158;-66
2022/05/03 09:13:36;;;;;;;8.05;5.22;;;19.50;83.70;;;;;;5136516;27;20162;-65
2022/05/03 09:16:13;;;;;;;7.18;5.28;;;19.60;83.50;;;;;;5138857;27;20601;-67
2022/05/03 09:18:40;;;;;;;7.32;5.00;;;19.50;82.60;;;;;;5140062;27;20157;-67
2022/05/03 09:24:11;;;;;;;8.52;4.65;;;19.70;80.30;;;;;;5141953;27;20203;-65
2022/05/03 09:26:37;;;;;;;6.90;4.63;;;19.60;81.70;;;;;;5139768;27;20221;-67
2022/05/03 09:29:14;;;;;;;8.20;4.72;;;20.00;80.10;;;;;;5143769;27;20166;-67
2022/05/03 09:31:50;;;;;;;5.75;4.32;;;20.00;78.70;;;;;;5148919;27;20149;-67
2022/05/03 09:34:25;;;;;;;6.00;4.75;;;20.00;78.60;;;;;;5141288;27;20149;-66
2022/05/03 09:37:09;;;;;;;6.55;4.97;;;19.80;77.50;;;;;;5141661;27;20165;-65
2022/05/03 09:39:47;;;;;;;7.13;4.82;;;20.00;79.30;;;;;;5138785;27;20150;-66
2022/05/03 09:42:15;;;;;;;6.43;4.55;;;20.10;77.50;;;;;;5117790;27;20235;-66
2022/05/03 09:44:58;;;;;;;7.28;4.80;;;20.00;77.70;;;;;;5135216;27;20201;-69
2022/05/03 09:47:29;;;;;;;8.38;5.47;;;20.10;74.80;;;;;;5134887;27;20157;-67
2022/05/03 09:49:55;;;;;;;6.63;5.00;;;20.00;75.60;;;;;;5134492;27;20170;-66
2022/05/03 09:52:27;;;;;;;6.32;5.25;;;20.00;76.40;;;;;;5134212;27;20474;-66
2022/05/03 09:54:58;;;;;;;8.85;5.78;;;20.20;74.90;;;;;;5134935;27;20623;-66
2022/05/03 09:57:25;;;;;;;8.75;4.72;;;20.00;75.00;;;;;;5134480;27;20604;-68
2022/05/03 09:59:53;;;;;;;6.78;4.70;;;20.40;75.10;;;;;;5134448;27;20169;-68
2022/05/03 10:02:26;;;;;;;7.68;5.13;;;20.60;74.80;;;;;;5112444;28;20294;-66
2022/05/03 10:04:56;;;;;;;6.07;5.25;;;20.60;74.00;;;;;;5114733;28;20158;-69
2022/05/03 10:07:21;;;;;;;8.88;6.25;;;20.50;73.30;;;;;;5115090;28;20624;-68
2022/05/03 10:09:48;;;;;;;7.80;5.43;;;19.90;72.90;;;;;;5114529;28;20158;-65
2022/05/03 10:12:15;;;;;;;11.98;5.53;;;19.90;74.10;;;;;;5112735;28;20558;-65
2022/05/03 10:14:42;;;;;;;6.50;5.10;;;20.10;74.90;;;;;;5114294;28;20166;-64
2022/05/03 10:23:02;;;;;;;9.68;4.95;;;20.70;71.90;;;;;;5106260;28;20379;-65
2022/05/03 10:25:48;;;;;;;6.95;5.55;;;20.80;72.10;;;;;;5118438;28;20166;-66
2022/05/03 10:28:14;;;;;;;10.05;5.80;;;21.00;71.50;;;;;;5106426;28;20699;-64
2022/05/03 10:31:11;;;;;;;7.25;5.20;;;20.90;69.80;;;;;;5118471;28;20235;-68
2022/05/03 10:33:38;;;;;;;7.78;5.25;;;20.80;69.20;;;;;;5111914;27;20280;-66
2022/05/03 10:36:32;;;;;;;6.22;5.15;;;20.70;69.60;;;;;;5118530;28;20228;-66
2022/05/03 10:39:27;;;;;;;9.88;5.13;;;20.70;69.60;;;;;;5151012;27;20181;-65
2022/05/03 10:41:57;;;;;;;6.30;5.25;;;20.80;69.30;;;;;;5104748;28;20190;-66
2022/05/03 10:45:05;;;;;;;5.90;5.03;;;21.00;69.50;;;;;;5117682;27;20169;-66
2022/05/03 10:47:52;;;;;;;9.70;4.70;;;20.70;68.00;;;;;;5108300;28;20614;-68
2022/05/03 10:50:19;;;;;;;9.60;5.10;;;21.00;69.30;;;;;;5117738;28;20154;-64
2022/05/03 10:53:06;;;;;;;6.55;4.95;;;20.90;68.50;;;;;;5117124;28;20213;-65
2022/05/03 10:55:35;;;;;;;5.80;4.75;;;21.30;68.10;;;;;;5118728;28;20192;-66
2022/05/03 10:58:16;;;;;;;6.63;5.03;;;21.70;65.70;;;;;;5118199;28;20188;-65
2022/05/03 11:01:04;;;;;;;7.00;5.43;;;21.50;65.00;;;;;;5118108;28;20206;-66
2022/05/03 11:03:31;;;;;;;6.75;5.07;;;21.50;65.50;;;;;;5134097;27;20232;-67
2022/05/03 11:06:27;;;;;;;7.10;5.10;;;21.40;64.00;;;;;;5138267;27;20197;-68
2022/05/03 11:09:08;;;;;;;6.32;4.93;;;21.00;62.10;;;;;;5118865;27;20598;-69
2022/05/03 11:11:43;;;;;;;8.43;5.53;;;21.20;64.10;;;;;;5137438;27;20506;-66
2022/05/03 11:14:21;;;;;;;8.13;4.75;;;21.30;63.70;;;;;;5138321;27;20210;-69
2022/05/03 11:17:08;;;;;;;7.07;5.85;;;21.40;62.20;;;;;;5144322;27;20153;-66
2022/05/03 11:19:35;;;;;;;6.43;4.57;;;21.80;61.60;;;;;;5146681;27;20218;-65
2022/05/03 11:22:07;;;;;;;7.70;5.38;;;21.50;61.30;;;;;;5147682;27;20625;-66
2022/05/03 11:24:33;;;;;;;6.93;5.57;;;21.10;61.10;;;;;;5148050;27;20172;-66
2022/05/03 11:27:03;;;;;;;7.43;4.47;;;21.20;61.70;;;;;;5120414;27;20170;-65
2022/05/03 11:29:50;;;;;;;6.47;4.60;;;21.50;61.10;;;;;;5136895;27;20165;-66
2022/05/03 11:32:30;;;;;;;7.13;5.00;;;21.60;60.00;;;;;;5136388;27;20188;-66
2022/05/03 11:35:11;;;;;;;7.05;4.88;;;21.70;58.80;;;;;;5137602;27;20161;-66
2022/05/03 11:37:55;;;;;;;15.23;5.30;;;22.10;58.60;;;;;;5137302;27;20162;-67
2022/05/03 11:40:23;;;;;;;7.18;4.68;;;22.10;59.20;;;;;;5153148;27;20180;-65
2022/05/03 11:42:50;;;;;;;7.72;5.05;;;21.80;59.00;;;;;;5137106;27;20201;-65
2022/05/03 11:45:16;;;;;;;6.45;4.63;;;21.50;59.30;;;;;;5137183;27;20173;-65
2022/05/03 11:47:44;;;;;;;7.47;4.88;;;21.60;60.50;;;;;;5136824;27;20158;-65
2022/05/03 11:50:13;;;;;;;7.00;4.95;;;21.60;59.90;;;;;;5137037;27;20173;-66
2022/05/03 11:58:10;;;;;;;16.42;5.90;;;21.80;58.90;;;;;;5137059;27;20168;-65
2022/05/03 12:00:47;;;;;;;12.38;6.50;;;21.80;58.90;;;;;;5136478;27;20165;-66
2022/05/03 12:03:13;;;;;;;11.50;6.07;;;21.70;59.70;;;;;;5136638;27;20309;-68
2022/05/03 12:05:40;;;;;;;8.63;5.22;;;21.70;59.60;;;;;;5136848;27;20157;-66
2022/05/03 12:08:17;;;;;;;16.70;7.57;;;21.60;60.00;;;;;;5136477;27;20227;-66
2022/05/03 12:10:43;;;;;;;7.68;4.88;;;21.80;60.30;;;;;;5136917;27;20596;-67
2022/05/03 12:13:13;;;;;;;6.57;4.45;;;21.50;60.00;;;;;;5136497;27;20179;-67
2022/05/03 12:15:45;;;;;;;5.40;4.53;;;21.50;60.40;;;;;;5118602;27;20174;-66
2022/05/03 12:18:19;;;;;;;4.70;4.22;;;21.40;60.70;;;;;;5119516;27;20169;-67
2022/05/03 12:20:57;;;;;;;7.45;4.75;;;21.90;59.10;;;;;;5124956;27;20174;-66
2022/05/03 12:23:34;;;;;;;10.45;4.93;;;21.90;59.00;;;;;;5150429;27;20396;-68
2022/05/03 12:26:35;;;;;;;7.57;4.47;;;20.90;59.70;;;;;;5137712;27;20268;-66
2022/05/03 12:29:01;;;;;;;5.35;4.80;;;20.70;60.70;;;;;;5136548;27;20157;-66
2022/05/03 12:31:34;;;;;;;7.07;5.10;;;20.70;61.90;;;;;;5118098;27;20170;-67
2022/05/03 12:34:01;;;;;;;6.00;4.88;;;20.80;60.60;;;;;;5136066;27;20153;-67
2022/05/03 12:36:33;;;;;;;5.10;4.38;;;21.20;59.80;;;;;;5135937;27;20503;-67
2022/05/03 12:39:21;;;;;;;4.80;4.03;;;21.00;59.30;;;;;;5135722;27;20198;-67
2022/05/03 12:41:55;;;;;;;5.70;4.30;;;20.90;61.00;;;;;;5134452;27;20158;-67
2022/05/03 12:44:22;;;;;;;5.63;4.10;;;21.40;59.70;;;;;;5135750;27;20161;-67
2022/05/03 12:46:50;;;;;;;5.50;4.40;;;21.80;58.40;;;;;;5117252;27;20594;-65
2022/05/03 12:49:16;;;;;;;7.72;4.78;;;22.50;57.90;;;;;;5136036;27;20170;-64
2022/05/03 12:51:48;;;;;;;5.55;4.60;;;22.60;57.50;;;;;;5135660;27;20183;-67
2022/05/03 12:54:14;;;;;;;6.50;4.55;;;22.70;57.10;;;;;;5136428;27;20174;-67
2022/05/03 12:59:27;;;;;;;5.88;4.22;;;22.20;58.00;;;;;;5135679;27;20181;-66
2022/05/03 13:01:55;;;;;;;4.80;4.00;;;22.10;57.90;;;;;;5117362;27;20237;-66
2022/05/03 13:04:21;;;;;;;10.23;6.70;;;22.30;57.40;;;;;;5136191;27;20161;-66
2022/05/03 13:06:48;;;;;;;4.88;4.18;;;22.50;57.10;;;;;;5136208;27;20157;-67
2022/05/03 13:09:14;;;;;;;5.80;4.32;;;22.30;55.80;;;;;;5153867;27;20566;-66
2022/05/03 13:11:40;;;;;;;5.38;4.20;;;21.90;57.40;;;;;;5135335;27;20161;-66
2022/05/03 13:14:08;;;;;;;5.95;4.40;;;22.30;57.90;;;;;;5135252;27;20180;-68
2022/05/03 13:16:33;;;;;;;8.57;4.32;;;22.20;58.50;;;;;;5136280;27;20154;-66
2022/05/03 13:18:59;;;;;;;7.57;4.07;;;22.40;57.20;;;;;;5116959;27;20332;-66
2022/05/03 13:21:25;;;;;;;4.75;4.03;;;22.60;57.60;;;;;;5136090;27;20168;-66
2022/05/03 13:23:50;;;;;;;4.57;4.07;;;22.40;57.50;;;;;;5135596;27;20250;-66
2022/05/03 13:26:16;;;;;;;5.20;4.47;;;22.50;57.60;;;;;;5137127;27;20623;-66
2022/05/03 13:28:42;;;;;;;7.22;3.65;;;22.60;57.00;;;;;;5137165;27;20164;-67
2022/05/03 13:31:08;;;;;;;5.07;4.43;;;22.90;57.00;;;;;;5137253;27;20290;-66
2022/05/03 13:33:34;;;;;;;4.80;4.03;;;22.50;54.60;;;;;;5136906;27;20172;-65
2022/05/03 13:41:28;;;;;;;5.68;4.00;;;23.50;55.00;;;;;;5135459;27;20577;-68